sensor_id;sensor_type;location;lat;lon;timestamp;temperature;humidity
14008;DHT22;61651;45.508;12.232;2022-09-16T00:00:47;23.90;99.90
14008;DHT22;61651;45.508;12.232;2022-09-16T00:03:53;23.90;99.90
14008;DHT22;61651;45.508;12.232;2022-09-16T00:06:55;23.90;99.90
14008;DHT22;61651;45.508;12.232;2022-09-16T00:09:58;23.80;99.90
14008;DHT22;61651;45.508;12.232;2022-09-16T00:13:00;23.90;99.90
14008;DHT22;61651;45.508;12.232;2022-09-16T00:16:06;23.80;99.90
14008;DHT22;61651;45.508;12.232;2022-09-16T00:19:08;23.80;99.90
14008;DHT22;61651;45.508;12.232;2022-09-16T00:22:10;23.70;99.90
14008;DHT22;61651;45.508;12.232;2022-09-16T00:25:14;23.70;99.90
14008;DHT22;61651;45.508;12.232;2022-09-16T00:28:16;23.70;99.90
14008;DHT22;61651;45.508;12.232;2022-09-16T00:31:18;23.60;99.90
14008;DHT22;61651;45.508;12.232;2022-09-16T00:34:20;23.60;99.90
14008;DHT22;61651;45.508;12.232;2022-09-16T00:37:22;23.60;99.90
14008;DHT22;61651;45.508;12.232;2022-09-16T00:40:25;23.60;99.90
14008;DHT22;61651;45.508;12.232;2022-09-16T00:43:27;23.60;99.90
14008;DHT22;61651;45.508;12.232;2022-09-16T00:46:33;23.60;99.90
14008;DHT22;61651;45.508;12.232;2022-09-16T00:49:36;23.60;99.90
14008;DHT22;61651;45.508;12.232;2022-09-16T00:52:39;23.60;99.90
14008;DHT22;61651;45.508;12.232;2022-09-16T00:55:44;23.60;99.90
14008;DHT22;61651;45.508;12.232;2022-09-16T00:58:48;23.50;99.90
14008;DHT22;61651;45.508;12.232;2022-09-16T01:01:53;23.50;99.90
14008;DHT22;61651;45.508;12.232;2022-09-16T01:05:00;23.50;99.90
14008;DHT22;61651;45.508;12.232;2022-09-16T01:08:03;23.50;99.90
14008;DHT22;61651;45.508;12.232;2022-09-16T01:11:07;23.50;99.90
14008;DHT22;61651;45.508;12.232;2022-09-16T01:14:09;23.40;99.90
14008;DHT22;61651;45.508;12.232;2022-09-16T01:21:20;23.40;99.90
14008;DHT22;61651;45.508;12.232;2022-09-16T01:24:49;23.40;99.90
14008;DHT22;61651;45.508;12.232;2022-09-16T01:28:06;23.40;99.90
14008;DHT22;61651;45.508;12.232;2022-09-16T01:31:17;23.40;99.90
14008;DHT22;61651;45.508;12.232;2022-09-16T01:34:28;23.40;99.90
14008;DHT22;61651;45.508;12.232;2022-09-16T01:37:42;23.40;99.90
14008;DHT22;61651;45.508;12.232;2022-09-16T01:40:51;23.40;99.90
14008;DHT22;61651;45.508;12.232;2022-09-16T01:44:00;23.40;99.90
14008;DHT22;61651;45.508;12.232;2022-09-16T01:47:11;23.30;99.90
14008;DHT22;61651;45.508;12.232;2022-09-16T01:50:24;23.30;99.90
14008;DHT22;61651;45.508;12.232;2022-09-16T01:53:31;23.30;99.90
14008;DHT22;61651;45.508;12.232;2022-09-16T01:56:40;23.30;99.90
14008;DHT22;61651;45.508;12.232;2022-09-16T01:59:47;23.20;99.90
14008;DHT22;61651;45.508;12.232;2022-09-16T02:02:55;23.10;99.90
14008;DHT22;61651;45.508;12.232;2022-09-16T02:06:00;23.10;99.90
14008;DHT22;61651;45.508;12.232;2022-09-16T02:09:05;23.10;99.90
14008;DHT22;61651;45.508;12.232;2022-09-16T02:12:13;23.10;99.90
14008;DHT22;61651;45.508;12.232;2022-09-16T02:15:20;23.10;99.90
14008;DHT22;61651;45.508;12.232;2022-09-16T02:18:29;23.10;99.90
14008;DHT22;61651;45.508;12.232;2022-09-16T02:21:33;23.10;99.90
14008;DHT22;61651;45.508;12.232;2022-09-16T02:24:37;23.20;99.90
14008;DHT22;61651;45.508;12.232;2022-09-16T02:27:42;23.10;99.90
14008;DHT22;61651;45.508;12.232;2022-09-16T02:31:01;23.10;99.90
14008;DHT22;61651;45.508;12.232;2022-09-16T02:34:11;23.10;99.90
14008;DHT22;61651;45.508;12.232;2022-09-16T02:37:18;22.90;99.90
14008;DHT22;61651;45.508;12.232;2022-09-16T02:40:25;22.90;99.90
14008;DHT22;61651;45.508;12.232;2022-09-16T02:43:28;22.90;99.90
14008;DHT22;61651;45.508;12.232;2022-09-16T02:46:36;23.00;99.90
14008;DHT22;61651;45.508;12.232;2022-09-16T02:49:47;22.90;99.90
14008;DHT22;61651;45.508;12.232;2022-09-16T02:52:57;22.90;99.90
14008;DHT22;61651;45.508;12.232;2022-09-16T02:56:02;22.90;99.90
14008;DHT22;61651;45.508;12.232;2022-09-16T02:59:10;22.90;99.90
14008;DHT22;61651;45.508;12.232;2022-09-16T03:02:12;22.90;99.90
14008;DHT22;61651;45.508;12.232;2022-09-16T03:05:16;22.90;99.90
14008;DHT22;61651;45.508;12.232;2022-09-16T03:08:18;22.90;99.90
14008;DHT22;61651;45.508;12.232;2022-09-16T03:11:33;22.90;99.90
14008;DHT22;61651;45.508;12.232;2022-09-16T03:15:03;23.00;99.90
14008;DHT22;61651;45.508;12.232;2022-09-16T03:18:39;23.00;99.90
14008;DHT22;61651;45.508;12.232;2022-09-16T03:21:54;22.90;99.90
14008;DHT22;61651;45.508;12.232;2022-09-16T03:25:06;23.00;99.90
14008;DHT22;61651;45.508;12.232;2022-09-16T03:28:13;23.00;99.90
14008;DHT22;61651;45.508;12.232;2022-09-16T03:31:19;23.00;99.90
14008;DHT22;61651;45.508;12.232;2022-09-16T03:34:25;23.00;99.90
14008;DHT22;61651;45.508;12.232;2022-09-16T03:37:34;22.90;99.90
14008;DHT22;61651;45.508;12.232;2022-09-16T03:40:37;22.90;99.90
14008;DHT22;61651;45.508;12.232;2022-09-16T03:43:39;22.90;99.90
14008;DHT22;61651;45.508;12.232;2022-09-16T03:46:41;22.90;99.90
14008;DHT22;61651;45.508;12.232;2022-09-16T03:49:43;22.90;99.90
14008;DHT22;61651;45.508;12.232;2022-09-16T03:52:46;22.90;99.90
14008;DHT22;61651;45.508;12.232;2022-09-16T03:55:48;22.90;99.90
14008;DHT22;61651;45.508;12.232;2022-09-16T03:58:51;23.00;99.90
14008;DHT22;61651;45.508;12.232;2022-09-16T04:01:53;22.90;99.90
14008;DHT22;61651;45.508;12.232;2022-09-16T04:04:55;23.00;99.90
14008;DHT22;61651;45.508;12.232;2022-09-16T04:07:59;22.90;99.90
14008;DHT22;61651;45.508;12.232;2022-09-16T04:11:03;22.90;99.90
14008;DHT22;61651;45.508;12.232;2022-09-16T04:14:06;22.90;99.90
14008;DHT22;61651;45.508;12.232;2022-09-16T04:17:08;23.00;99.90
14008;DHT22;61651;45.508;12.232;2022-09-16T04:20:10;22.90;99.90
14008;DHT22;61651;45.508;12.232;2022-09-16T04:23:13;22.90;99.90
14008;DHT22;61651;45.508;12.232;2022-09-16T04:26:16;22.90;99.90
14008;DHT22;61651;45.508;12.232;2022-09-16T04:29:18;22.90;99.90
14008;DHT22;61651;45.508;12.232;2022-09-16T04:32:20;22.90;99.90
14008;DHT22;61651;45.508;12.232;2022-09-16T04:35:23;22.80;99.90
14008;DHT22;61651;45.508;12.232;2022-09-16T04:38:26;22.90;99.90
14008;DHT22;61651;45.508;12.232;2022-09-16T04:41:28;22.90;99.90
14008;DHT22;61651;45.508;12.232;2022-09-16T04:44:30;22.90;99.90
14008;DHT22;61651;45.508;12.232;2022-09-16T04:47:32;22.80;99.90
14008;DHT22;61651;45.508;12.232;2022-09-16T04:50:34;22.80;99.90
14008;DHT22;61651;45.508;12.232;2022-09-16T04:53:39;22.70;99.90
14008;DHT22;61651;45.508;12.232;2022-09-16T04:56:41;22.70;99.90
14008;DHT22;61651;45.508;12.232;2022-09-16T04:59:43;22.60;99.90
14008;DHT22;61651;45.508;12.232;2022-09-16T05:02:45;22.70;99.90
14008;DHT22;61651;45.508;12.232;2022-09-16T05:05:49;22.70;99.90
14008;DHT22;61651;45.508;12.232;2022-09-16T05:08:53;22.80;99.90
14008;DHT22;61651;45.508;12.232;2022-09-16T05:11:56;22.80;99.90
14008;DHT22;61651;45.508;12.232;2022-09-16T05:14:58;22.80;99.90
14008;DHT22;61651;45.508;12.232;2022-09-16T05:18:00;22.80;99.90
14008;DHT22;61651;45.508;12.232;2022-09-16T05:21:04;22.80;99.90
14008;DHT22;61651;45.508;12.232;2022-09-16T05:24:10;22.90;99.90
14008;DHT22;61651;45.508;12.232;2022-09-16T05:27:13;22.80;99.90
14008;DHT22;61651;45.508;12.232;2022-09-16T05:30:15;22.80;99.90
14008;DHT22;61651;45.508;12.232;2022-09-16T05:33:17;22.80;99.90
14008;DHT22;61651;45.508;12.232;2022-09-16T05:36:19;22.90;99.90
14008;DHT22;61651;45.508;12.232;2022-09-16T05:39:23;22.80;99.90
14008;DHT22;61651;45.508;12.232;2022-09-16T05:42:25;22.90;99.90
14008;DHT22;61651;45.508;12.232;2022-09-16T05:45:27;22.90;99.90
14008;DHT22;61651;45.508;12.232;2022-09-16T05:48:30;23.00;99.90
14008;DHT22;61651;45.508;12.232;2022-09-16T05:51:33;23.00;99.90
14008;DHT22;61651;45.508;12.232;2022-09-16T05:54:36;23.10;99.90
14008;DHT22;61651;45.508;12.232;2022-09-16T05:57:38;23.10;99.90
14008;DHT22;61651;45.508;12.232;2022-09-16T06:00:40;23.20;99.90
14008;DHT22;61651;45.508;12.232;2022-09-16T06:03:44;23.20;99.90
14008;DHT22;61651;45.508;12.232;2022-09-16T06:06:47;23.20;99.90
14008;DHT22;61651;45.508;12.232;2022-09-16T06:09:50;23.30;99.90
14008;DHT22;61651;45.508;12.232;2022-09-16T06:12:52;23.30;99.90
14008;DHT22;61651;45.508;12.232;2022-09-16T06:15:55;23.40;99.90
14008;DHT22;61651;45.508;12.232;2022-09-16T06:18:59;23.40;99.90
14008;DHT22;61651;45.508;12.232;2022-09-16T06:22:01;23.40;99.90
14008;DHT22;61651;45.508;12.232;2022-09-16T06:25:05;23.40;99.90
14008;DHT22;61651;45.508;12.232;2022-09-16T06:28:07;23.40;99.90
14008;DHT22;61651;45.508;12.232;2022-09-16T06:31:12;23.40;99.90
14008;DHT22;61651;45.508;12.232;2022-09-16T06:34:16;23.50;99.90
14008;DHT22;61651;45.508;12.232;2022-09-16T06:37:18;23.50;99.90
14008;DHT22;61651;45.508;12.232;2022-09-16T06:40:22;23.60;99.90
14008;DHT22;61651;45.508;12.232;2022-09-16T06:43:24;23.70;99.90
14008;DHT22;61651;45.508;12.232;2022-09-16T06:46:27;23.80;99.90
14008;DHT22;61651;45.508;12.232;2022-09-16T06:49:29;24.00;99.90
14008;DHT22;61651;45.508;12.232;2022-09-16T06:52:32;24.10;99.90
14008;DHT22;61651;45.508;12.232;2022-09-16T06:55:36;24.20;99.90
14008;DHT22;61651;45.508;12.232;2022-09-16T06:58:39;24.20;99.90
14008;DHT22;61651;45.508;12.232;2022-09-16T07:01:41;24.20;99.90
14008;DHT22;61651;45.508;12.232;2022-09-16T07:04:43;24.30;99.90
14008;DHT22;61651;45.508;12.232;2022-09-16T07:07:45;24.30;99.90
14008;DHT22;61651;45.508;12.232;2022-09-16T07:10:56;24.40;99.90
14008;DHT22;61651;45.508;12.232;2022-09-16T07:13:58;24.40;99.90
14008;DHT22;61651;45.508;12.232;2022-09-16T07:17:01;24.40;99.90
14008;DHT22;61651;45.508;12.232;2022-09-16T07:20:04;24.40;99.90
14008;DHT22;61651;45.508;12.232;2022-09-16T07:23:06;24.50;99.90
14008;DHT22;61651;45.508;12.232;2022-09-16T07:26:11;24.50;99.90
14008;DHT22;61651;45.508;12.232;2022-09-16T07:29:15;24.50;99.90
14008;DHT22;61651;45.508;12.232;2022-09-16T07:32:17;24.50;99.90
14008;DHT22;61651;45.508;12.232;2022-09-16T07:35:19;24.60;99.90
14008;DHT22;61651;45.508;12.232;2022-09-16T07:38:21;24.60;99.90
14008;DHT22;61651;45.508;12.232;2022-09-16T07:41:26;24.70;99.90
14008;DHT22;61651;45.508;12.232;2022-09-16T07:44:28;24.70;99.90
14008;DHT22;61651;45.508;12.232;2022-09-16T07:47:31;24.70;99.90
14008;DHT22;61651;45.508;12.232;2022-09-16T07:50:32;24.80;99.90
14008;DHT22;61651;45.508;12.232;2022-09-16T07:53:35;24.90;99.90
14008;DHT22;61651;45.508;12.232;2022-09-16T07:56:39;25.00;99.90
14008;DHT22;61651;45.508;12.232;2022-09-16T07:59:41;25.10;99.90
14008;DHT22;61651;45.508;12.232;2022-09-16T08:02:43;25.10;99.90
14008;DHT22;61651;45.508;12.232;2022-09-16T08:05:45;25.30;99.90
14008;DHT22;61651;45.508;12.232;2022-09-16T08:08:49;25.40;99.90
14008;DHT22;61651;45.508;12.232;2022-09-16T08:11:53;25.40;99.90
14008;DHT22;61651;45.508;12.232;2022-09-16T08:14:55;25.40;99.90
14008;DHT22;61651;45.508;12.232;2022-09-16T08:17:57;25.40;99.90
14008;DHT22;61651;45.508;12.232;2022-09-16T08:21:04;25.50;99.90
14008;DHT22;61651;45.508;12.232;2022-09-16T08:24:08;25.60;99.90
14008;DHT22;61651;45.508;12.232;2022-09-16T08:27:12;25.70;99.90
14008;DHT22;61651;45.508;12.232;2022-09-16T08:30:14;25.70;99.90
14008;DHT22;61651;45.508;12.232;2022-09-16T08:33:16;25.80;99.90
14008;DHT22;61651;45.508;12.232;2022-09-16T08:36:22;25.80;99.90
14008;DHT22;61651;45.508;12.232;2022-09-16T08:39:24;25.90;99.90
14008;DHT22;61651;45.508;12.232;2022-09-16T08:42:38;26.10;99.90
14008;DHT22;61651;45.508;12.232;2022-09-16T08:45:53;26.10;99.90
14008;DHT22;61651;45.508;12.232;2022-09-16T08:48:59;26.10;99.90
14008;DHT22;61651;45.508;12.232;2022-09-16T08:52:09;26.20;99.90
14008;DHT22;61651;45.508;12.232;2022-09-16T08:55:16;26.30;99.90
14008;DHT22;61651;45.508;12.232;2022-09-16T08:58:24;26.40;99.90
14008;DHT22;61651;45.508;12.232;2022-09-16T09:01:31;26.50;99.90
14008;DHT22;61651;45.508;12.232;2022-09-16T09:04:35;26.60;99.90
14008;DHT22;61651;45.508;12.232;2022-09-16T09:07:56;26.70;99.90
14008;DHT22;61651;45.508;12.232;2022-09-16T09:11:05;26.80;99.90
14008;DHT22;61651;45.508;12.232;2022-09-16T09:14:24;27.00;99.90
14008;DHT22;61651;45.508;12.232;2022-09-16T09:17:37;27.10;99.90
14008;DHT22;61651;45.508;12.232;2022-09-16T09:20:50;27.20;99.90
14008;DHT22;61651;45.508;12.232;2022-09-16T09:24:08;27.30;99.90
14008;DHT22;61651;45.508;12.232;2022-09-16T09:27:14;27.40;99.90
14008;DHT22;61651;45.508;12.232;2022-09-16T09:30:21;27.40;99.90
14008;DHT22;61651;45.508;12.232;2022-09-16T09:33:32;27.40;99.90
14008;DHT22;61651;45.508;12.232;2022-09-16T09:36:48;27.50;99.90
14008;DHT22;61651;45.508;12.232;2022-09-16T09:39:59;27.50;99.90
14008;DHT22;61651;45.508;12.232;2022-09-16T09:43:11;27.70;99.90
14008;DHT22;61651;45.508;12.232;2022-09-16T09:46:19;27.80;99.90
14008;DHT22;61651;45.508;12.232;2022-09-16T09:49:27;28.00;99.90
14008;DHT22;61651;45.508;12.232;2022-09-16T09:52:35;28.10;99.90
14008;DHT22;61651;45.508;12.232;2022-09-16T09:55:40;28.20;99.90
14008;DHT22;61651;45.508;12.232;2022-09-16T09:58:47;28.30;99.90
14008;DHT22;61651;45.508;12.232;2022-09-16T10:01:57;28.30;99.90
14008;DHT22;61651;45.508;12.232;2022-09-16T10:05:00;28.30;99.90
14008;DHT22;61651;45.508;12.232;2022-09-16T10:08:08;28.40;99.90
14008;DHT22;61651;45.508;12.232;2022-09-16T10:11:18;28.40;99.90
14008;DHT22;61651;45.508;12.232;2022-09-16T10:14:26;28.50;99.90
14008;DHT22;61651;45.508;12.232;2022-09-16T10:17:32;28.60;99.90
14008;DHT22;61651;45.508;12.232;2022-09-16T10:20:36;28.80;99.90
14008;DHT22;61651;45.508;12.232;2022-09-16T10:23:39;28.90;99.90
14008;DHT22;61651;45.508;12.232;2022-09-16T10:26:41;28.90;99.90
14008;DHT22;61651;45.508;12.232;2022-09-16T10:29:43;28.90;99.90
14008;DHT22;61651;45.508;12.232;2022-09-16T10:32:49;29.00;99.90
14008;DHT22;61651;45.508;12.232;2022-09-16T10:35:54;29.00;99.90
14008;DHT22;61651;45.508;12.232;2022-09-16T10:38:59;29.00;99.90
14008;DHT22;61651;45.508;12.232;2022-09-16T10:42:02;29.20;99.90
14008;DHT22;61651;45.508;12.232;2022-09-16T10:45:13;29.50;99.90
14008;DHT22;61651;45.508;12.232;2022-09-16T10:48:19;29.70;99.90
14008;DHT22;61651;45.508;12.232;2022-09-16T10:51:23;29.90;99.90
14008;DHT22;61651;45.508;12.232;2022-09-16T10:54:26;29.90;99.90
14008;DHT22;61651;45.508;12.232;2022-09-16T10:57:30;30.10;99.90
14008;DHT22;61651;45.508;12.232;2022-09-16T11:00:38;30.30;99.90
14008;DHT22;61651;45.508;12.232;2022-09-16T11:04:13;30.50;99.90
14008;DHT22;61651;45.508;12.232;2022-09-16T11:07:26;30.70;99.90
14008;DHT22;61651;45.508;12.232;2022-09-16T11:10:38;30.70;99.90
14008;DHT22;61651;45.508;12.232;2022-09-16T11:13:48;30.70;99.90
14008;DHT22;61651;45.508;12.232;2022-09-16T11:17:08;30.80;99.90
14008;DHT22;61651;45.508;12.232;2022-09-16T11:24:14;30.80;99.90
14008;DHT22;61651;45.508;12.232;2022-09-16T11:27:28;31.00;99.90
14008;DHT22;61651;45.508;12.232;2022-09-16T11:30:36;31.00;99.90
14008;DHT22;61651;45.508;12.232;2022-09-16T11:33:50;31.00;99.90
14008;DHT22;61651;45.508;12.232;2022-09-16T11:37:05;30.90;99.90
14008;DHT22;61651;45.508;12.232;2022-09-16T11:40:17;30.80;99.90
14008;DHT22;61651;45.508;12.232;2022-09-16T11:43:45;31.00;99.90
14008;DHT22;61651;45.508;12.232;2022-09-16T11:47:00;31.20;99.90
14008;DHT22;61651;45.508;12.232;2022-09-16T11:53:48;31.30;99.90
14008;DHT22;61651;45.508;12.232;2022-09-16T11:56:56;31.50;99.90
14008;DHT22;61651;45.508;12.232;2022-09-16T12:00:02;31.40;99.90
14008;DHT22;61651;45.508;12.232;2022-09-16T12:03:11;31.40;99.90
14008;DHT22;61651;45.508;12.232;2022-09-16T12:06:16;31.40;99.90
14008;DHT22;61651;45.508;12.232;2022-09-16T12:09:26;31.50;99.90
14008;DHT22;61651;45.508;12.232;2022-09-16T12:12:34;31.60;99.90
14008;DHT22;61651;45.508;12.232;2022-09-16T12:15:41;31.60;99.90
14008;DHT22;61651;45.508;12.232;2022-09-16T12:18:48;31.60;99.90
14008;DHT22;61651;45.508;12.232;2022-09-16T12:21:53;31.80;99.90
14008;DHT22;61651;45.508;12.232;2022-09-16T12:25:02;32.00;99.90
14008;DHT22;61651;45.508;12.232;2022-09-16T12:28:26;32.10;99.90
14008;DHT22;61651;45.508;12.232;2022-09-16T12:31:33;32.10;99.90
14008;DHT22;61651;45.508;12.232;2022-09-16T12:34:40;31.70;99.90
14008;DHT22;61651;45.508;12.232;2022-09-16T12:37:46;31.40;99.90
14008;DHT22;61651;45.508;12.232;2022-09-16T12:41:09;31.30;99.90
14008;DHT22;61651;45.508;12.232;2022-09-16T12:44:32;31.10;99.90
14008;DHT22;61651;45.508;12.232;2022-09-16T12:47:51;31.10;99.90
14008;DHT22;61651;45.508;12.232;2022-09-16T12:51:09;31.10;99.90
14008;DHT22;61651;45.508;12.232;2022-09-16T12:54:48;31.10;99.90
14008;DHT22;61651;45.508;12.232;2022-09-16T13:01:24;31.20;99.90
14008;DHT22;61651;45.508;12.232;2022-09-16T13:04:31;31.80;99.90
14008;DHT22;61651;45.508;12.232;2022-09-16T13:07:35;32.40;99.90
14008;DHT22;61651;45.508;12.232;2022-09-16T13:10:39;32.70;99.90
14008;DHT22;61651;45.508;12.232;2022-09-16T13:13:46;32.50;99.90
14008;DHT22;61651;45.508;12.232;2022-09-16T13:16:52;32.50;99.90
14008;DHT22;61651;45.508;12.232;2022-09-16T13:19:57;32.60;99.90
14008;DHT22;61651;45.508;12.232;2022-09-16T13:23:06;32.20;99.90
14008;DHT22;61651;45.508;12.232;2022-09-16T13:26:09;32.10;99.90
14008;DHT22;61651;45.508;12.232;2022-09-16T13:29:30;31.90;99.90
14008;DHT22;61651;45.508;12.232;2022-09-16T13:32:42;31.60;99.90
14008;DHT22;61651;45.508;12.232;2022-09-16T13:35:46;31.40;99.90
14008;DHT22;61651;45.508;12.232;2022-09-16T13:38:51;31.10;99.90
14008;DHT22;61651;45.508;12.232;2022-09-16T13:41:53;30.90;99.90
14008;DHT22;61651;45.508;12.232;2022-09-16T13:44:56;30.70;99.90
14008;DHT22;61651;45.508;12.232;2022-09-16T13:51:21;30.30;99.90
14008;DHT22;61651;45.508;12.232;2022-09-16T13:54:28;30.10;99.90
14008;DHT22;61651;45.508;12.232;2022-09-16T13:57:46;30.00;99.90
14008;DHT22;61651;45.508;12.232;2022-09-16T14:01:00;29.80;99.90
14008;DHT22;61651;45.508;12.232;2022-09-16T14:04:08;29.70;99.90
14008;DHT22;61651;45.508;12.232;2022-09-16T14:07:24;29.50;99.90
14008;DHT22;61651;45.508;12.232;2022-09-16T14:10:34;29.40;99.90
14008;DHT22;61651;45.508;12.232;2022-09-16T14:13:41;29.20;99.90
14008;DHT22;61651;45.508;12.232;2022-09-16T14:16:46;29.10;99.90
14008;DHT22;61651;45.508;12.232;2022-09-16T14:19:51;29.10;99.90
14008;DHT22;61651;45.508;12.232;2022-09-16T14:23:01;29.00;99.90
14008;DHT22;61651;45.508;12.232;2022-09-16T14:26:11;28.90;99.90
14008;DHT22;61651;45.508;12.232;2022-09-16T14:29:14;28.90;99.90
14008;DHT22;61651;45.508;12.232;2022-09-16T14:32:18;28.70;99.90
14008;DHT22;61651;45.508;12.232;2022-09-16T14:35:23;28.60;99.90
14008;DHT22;61651;45.508;12.232;2022-09-16T14:38:32;28.60;99.90
14008;DHT22;61651;45.508;12.232;2022-09-16T14:41:38;28.60;99.90
14008;DHT22;61651;45.508;12.232;2022-09-16T14:44:44;28.60;99.90
14008;DHT22;61651;45.508;12.232;2022-09-16T14:47:51;28.70;99.90
14008;DHT22;61651;45.508;12.232;2022-09-16T14:50:54;28.70;99.90
14008;DHT22;61651;45.508;12.232;2022-09-16T14:53:58;28.90;99.90
14008;DHT22;61651;45.508;12.232;2022-09-16T14:57:04;29.00;99.90
14008;DHT22;61651;45.508;12.232;2022-09-16T15:00:13;29.60;99.90
14008;DHT22;61651;45.508;12.232;2022-09-16T15:03:22;30.20;99.90
14008;DHT22;61651;45.508;12.232;2022-09-16T15:06:27;30.80;99.90
14008;DHT22;61651;45.508;12.232;2022-09-16T15:09:37;31.30;99.90
14008;DHT22;61651;45.508;12.232;2022-09-16T15:12:45;31.80;99.90
14008;DHT22;61651;45.508;12.232;2022-09-16T15:15:50;32.20;99.90
14008;DHT22;61651;45.508;12.232;2022-09-16T15:18:57;32.50;99.90
14008;DHT22;61651;45.508;12.232;2022-09-16T15:22:00;32.80;99.90
14008;DHT22;61651;45.508;12.232;2022-09-16T15:25:03;32.90;99.90
14008;DHT22;61651;45.508;12.232;2022-09-16T15:28:06;33.10;99.90
14008;DHT22;61651;45.508;12.232;2022-09-16T15:31:08;33.30;99.90
14008;DHT22;61651;45.508;12.232;2022-09-16T15:34:22;33.40;99.90
14008;DHT22;61651;45.508;12.232;2022-09-16T15:37:29;33.40;99.90
14008;DHT22;61651;45.508;12.232;2022-09-16T15:40:32;33.40;99.90
14008;DHT22;61651;45.508;12.232;2022-09-16T15:43:37;33.40;99.90
14008;DHT22;61651;45.508;12.232;2022-09-16T15:46:44;33.40;99.90
14008;DHT22;61651;45.508;12.232;2022-09-16T15:49:51;33.30;99.90
14008;DHT22;61651;45.508;12.232;2022-09-16T15:52:56;33.20;99.90
14008;DHT22;61651;45.508;12.232;2022-09-16T15:56:03;33.10;99.90
14008;DHT22;61651;45.508;12.232;2022-09-16T15:59:21;32.90;99.90
14008;DHT22;61651;45.508;12.232;2022-09-16T16:02:30;32.60;99.90
14008;DHT22;61651;45.508;12.232;2022-09-16T16:05:49;32.20;99.90
14008;DHT22;61651;45.508;12.232;2022-09-16T16:08:52;31.80;99.90
14008;DHT22;61651;45.508;12.232;2022-09-16T16:11:54;31.50;99.90
14008;DHT22;61651;45.508;12.232;2022-09-16T16:14:57;31.20;99.90
14008;DHT22;61651;45.508;12.232;2022-09-16T16:18:02;30.90;99.90
14008;DHT22;61651;45.508;12.232;2022-09-16T16:21:07;30.70;99.90
14008;DHT22;61651;45.508;12.232;2022-09-16T16:24:10;30.50;99.90
14008;DHT22;61651;45.508;12.232;2022-09-16T16:27:11;30.30;99.90
14008;DHT22;61651;45.508;12.232;2022-09-16T16:30:14;30.10;99.90
14008;DHT22;61651;45.508;12.232;2022-09-16T16:33:15;30.00;99.90
14008;DHT22;61651;45.508;12.232;2022-09-16T16:36:19;29.80;99.90
14008;DHT22;61651;45.508;12.232;2022-09-16T16:39:22;29.70;99.90
14008;DHT22;61651;45.508;12.232;2022-09-16T16:42:24;29.60;99.90
14008;DHT22;61651;45.508;12.232;2022-09-16T16:45:28;29.50;99.90
14008;DHT22;61651;45.508;12.232;2022-09-16T16:48:30;29.40;99.90
14008;DHT22;61651;45.508;12.232;2022-09-16T16:51:34;29.20;99.90
14008;DHT22;61651;45.508;12.232;2022-09-16T16:54:36;29.10;99.90
14008;DHT22;61651;45.508;12.232;2022-09-16T16:57:38;29.00;99.90
14008;DHT22;61651;45.508;12.232;2022-09-16T17:00:39;28.90;99.90
14008;DHT22;61651;45.508;12.232;2022-09-16T17:03:43;28.80;99.90
14008;DHT22;61651;45.508;12.232;2022-09-16T17:06:47;28.70;99.90
14008;DHT22;61651;45.508;12.232;2022-09-16T17:09:49;28.60;99.90
14008;DHT22;61651;45.508;12.232;2022-09-16T17:12:51;28.50;99.90
14008;DHT22;61651;45.508;12.232;2022-09-16T17:15:53;28.40;99.90
14008;DHT22;61651;45.508;12.232;2022-09-16T17:18:57;28.30;99.90
14008;DHT22;61651;45.508;12.232;2022-09-16T17:22:01;28.20;99.90
14008;DHT22;61651;45.508;12.232;2022-09-16T17:25:03;28.10;99.90
14008;DHT22;61651;45.508;12.232;2022-09-16T17:28:05;28.00;99.90
14008;DHT22;61651;45.508;12.232;2022-09-16T17:31:08;28.00;99.90
14008;DHT22;61651;45.508;12.232;2022-09-16T17:34:12;27.90;99.90
14008;DHT22;61651;45.508;12.232;2022-09-16T17:37:16;27.90;99.90
14008;DHT22;61651;45.508;12.232;2022-09-16T17:40:19;27.80;99.90
14008;DHT22;61651;45.508;12.232;2022-09-16T17:43:24;27.70;99.90
14008;DHT22;61651;45.508;12.232;2022-09-16T17:46:26;27.60;99.90
14008;DHT22;61651;45.508;12.232;2022-09-16T17:49:28;27.50;99.90
14008;DHT22;61651;45.508;12.232;2022-09-16T17:52:32;27.40;99.90
14008;DHT22;61651;45.508;12.232;2022-09-16T17:55:34;27.40;99.90
14008;DHT22;61651;45.508;12.232;2022-09-16T17:58:37;27.40;99.90
14008;DHT22;61651;45.508;12.232;2022-09-16T18:01:39;27.30;99.90
14008;DHT22;61651;45.508;12.232;2022-09-16T18:04:41;27.20;99.90
14008;DHT22;61651;45.508;12.232;2022-09-16T18:07:45;27.10;99.90
14008;DHT22;61651;45.508;12.232;2022-09-16T18:10:51;26.90;99.90
14008;DHT22;61651;45.508;12.232;2022-09-16T18:13:53;26.80;99.90
14008;DHT22;61651;45.508;12.232;2022-09-16T18:16:56;26.70;99.90
14008;DHT22;61651;45.508;12.232;2022-09-16T18:19:57;26.70;99.90
14008;DHT22;61651;45.508;12.232;2022-09-16T18:23:01;26.50;99.90
14008;DHT22;61651;45.508;12.232;2022-09-16T18:26:04;26.40;99.90
14008;DHT22;61651;45.508;12.232;2022-09-16T18:29:08;26.30;99.90
14008;DHT22;61651;45.508;12.232;2022-09-16T18:32:10;26.20;99.90
14008;DHT22;61651;45.508;12.232;2022-09-16T18:35:12;26.00;99.90
14008;DHT22;61651;45.508;12.232;2022-09-16T18:38:16;25.90;99.90
14008;DHT22;61651;45.508;12.232;2022-09-16T18:41:19;25.60;99.90
14008;DHT22;61651;45.508;12.232;2022-09-16T18:44:22;25.50;99.90
14008;DHT22;61651;45.508;12.232;2022-09-16T18:47:24;25.20;99.90
14008;DHT22;61651;45.508;12.232;2022-09-16T18:50:26;24.80;99.90
14008;DHT22;61651;45.508;12.232;2022-09-16T18:53:30;24.50;99.90
14008;DHT22;61651;45.508;12.232;2022-09-16T18:56:33;24.30;99.90
14008;DHT22;61651;45.508;12.232;2022-09-16T18:59:36;24.20;99.90
14008;DHT22;61651;45.508;12.232;2022-09-16T19:02:38;24.00;99.90
14008;DHT22;61651;45.508;12.232;2022-09-16T19:05:40;23.90;99.90
14008;DHT22;61651;45.508;12.232;2022-09-16T19:08:43;23.90;99.90
14008;DHT22;61651;45.508;12.232;2022-09-16T19:11:45;23.80;99.90
14008;DHT22;61651;45.508;12.232;2022-09-16T19:14:47;23.80;99.90
14008;DHT22;61651;45.508;12.232;2022-09-16T19:17:50;23.80;99.90
14008;DHT22;61651;45.508;12.232;2022-09-16T19:20:52;23.90;99.90
14008;DHT22;61651;45.508;12.232;2022-09-16T19:23:58;23.80;99.90
14008;DHT22;61651;45.508;12.232;2022-09-16T19:27:00;23.80;99.90
14008;DHT22;61651;45.508;12.232;2022-09-16T19:30:02;23.70;99.90
14008;DHT22;61651;45.508;12.232;2022-09-16T19:33:05;23.70;99.90